Port Vila, Vanuatu

12:38 AM VUT on October 25, 2014 (GMT +1100)
Bauerfield | Change Station
CLOSE
Current Station
Airport
Location: Port Vila,
Elevation: 69 ft
Nearby Weather Stations

Elev 69 ft 17.70 °S, 168.30 °E | Updated 38 minutes ago

Light Rain Showers
Light Showers Rain
72 °F
Feels Like 72 °F
N
7
Wind Variable Wind from East

Today
High -- | Low -- °F
--% Chance of Precip.
Yesterday
High -- | Low -- °F
Precip. -- in
5:11 AM 5:50 PM
New Moon, 0% visible
Pressure 29.95 in
Visibility 6.2 miles
Clouds Scattered Clouds 2000 ft
Mostly Cloudy 3800 ft
Overcast 10000 ft
Dew Point 70 °F
Humidity 94%
Rainfall 0.00 in
Snow Depth Not available.
UV 0 out of 12
Pollen Not available.
Air Quality Not available.
Flu Activity Not available.
METAR NVVV 241300Z 08006KT 9999 -SHRA SCT020 BKN038 OVC100 22/21 Q1014 RMK NIL INTER 241300/241500 3000 -RA FEW010 BKN014 OVC038

More Conditions Fewer Conditions

Pressure 29.95 in
Visibility 6.2 miles
Clouds Scattered Clouds 2000 ft
Mostly Cloudy 3800 ft
Overcast 10000 ft
Dew Point 70 °F
Humidity 94%
Rainfall 0.00 in
Snow Depth Not available.
UV 0 out of 12
Pollen Not available.
Air Quality Not available.
Flu Activity Not available.
METAR NVVV 241300Z 08006KT 9999 -SHRA SCT020 BKN038 OVC100 22/21 Q1014 RMK NIL INTER 241300/241500 3000 -RA FEW010 BKN014 OVC038

More Conditions Fewer Conditions

10-Day Weather Forecast

Almanac

Astronomy

Oct. 25, 2014 Rise Set
Actual Time 5:11 AM VUT 5:50 PM VUT
Civil Twilight 4:49 AM VUT 6:12 PM VUT
Nautical Twilight 4:23 AM VUT 6:38 PM VUT
Astronomical Twilight 3:56 AM VUT 7:05 PM VUT
Moon 5:56 AM VUT (10/25) 6:58 PM VUT (10/25)
Length of Visible Light 13h 22m
Length of Day
12h 38m
Tomorrow will be 0m 57s longer.
New Moon, 0% of the Moon is Illuminated
Oct 24
New Moon
Oct 30
First Quarter
Nov 6
Full
Nov 14
Last Quarter
Nov 22
New

Yesterday's Extremes

Country Highs Country Lows

Community

WunderPhotos

Upload Photos

1,764,550 photos uploaded!

WunderBlogs® & News

Nearby

Snow Depth

Not available.

Earthquake Activity

City Distance Mag. Time & Date
No recent earthquake activity has been reported nearby.
Minimum magnitude displayed is 2.5.

Coastal Water Temperatures

Place Temperature
No Stations Reporting

Nearby Weather Stations